sensor_id;sensor_type;location;lat;lon;timestamp;temperature;humidity
46085;DHT22;31823;47.032;8.310;2024-02-21T00:01:23;2.20;99.90
46085;DHT22;31823;47.032;8.310;2024-02-21T00:03:49;2.30;99.90
46085;DHT22;31823;47.032;8.310;2024-02-21T00:06:14;2.30;99.90
46085;DHT22;31823;47.032;8.310;2024-02-21T00:08:40;2.20;99.90
46085;DHT22;31823;47.032;8.310;2024-02-21T00:11:06;2.20;99.90
46085;DHT22;31823;47.032;8.310;2024-02-21T00:13:32;2.20;99.90
46085;DHT22;31823;47.032;8.310;2024-02-21T00:15:57;2.20;99.90
46085;DHT22;31823;47.032;8.310;2024-02-21T00:18:23;2.10;99.90
46085;DHT22;31823;47.032;8.310;2024-02-21T00:20:49;2.20;99.90
46085;DHT22;31823;47.032;8.310;2024-02-21T00:23:14;2.20;99.90
46085;DHT22;31823;47.032;8.310;2024-02-21T00:25:40;2.20;99.90
46085;DHT22;31823;47.032;8.310;2024-02-21T00:28:05;2.20;99.90
46085;DHT22;31823;47.032;8.310;2024-02-21T00:30:31;2.10;99.90
46085;DHT22;31823;47.032;8.310;2024-02-21T00:32:57;2.20;99.90
46085;DHT22;31823;47.032;8.310;2024-02-21T00:35:23;2.20;99.90
46085;DHT22;31823;47.032;8.310;2024-02-21T00:37:48;2.20;99.90
46085;DHT22;31823;47.032;8.310;2024-02-21T00:40:14;2.20;99.90
46085;DHT22;31823;47.032;8.310;2024-02-21T00:42:45;2.20;99.90
46085;DHT22;31823;47.032;8.310;2024-02-21T00:45:11;2.30;99.90
46085;DHT22;31823;47.032;8.310;2024-02-21T00:47:37;2.20;99.90
46085;DHT22;31823;47.032;8.310;2024-02-21T00:50:02;2.20;99.90
46085;DHT22;31823;47.032;8.310;2024-02-21T00:52:28;2.30;99.90
46085;DHT22;31823;47.032;8.310;2024-02-21T00:54:54;2.30;99.90
46085;DHT22;31823;47.032;8.310;2024-02-21T00:57:19;2.30;99.90
46085;DHT22;31823;47.032;8.310;2024-02-21T00:59:45;2.30;99.90
46085;DHT22;31823;47.032;8.310;2024-02-21T01:02:11;2.20;99.90
46085;DHT22;31823;47.032;8.310;2024-02-21T01:04:36;2.20;99.90
46085;DHT22;31823;47.032;8.310;2024-02-21T01:07:02;2.20;99.90
46085;DHT22;31823;47.032;8.310;2024-02-21T01:09:28;2.30;99.90
46085;DHT22;31823;47.032;8.310;2024-02-21T01:11:53;2.20;99.90
46085;DHT22;31823;47.032;8.310;2024-02-21T01:14:19;2.20;99.90
46085;DHT22;31823;47.032;8.310;2024-02-21T01:16:44;2.10;99.90
46085;DHT22;31823;47.032;8.310;2024-02-21T01:19:10;2.10;99.90
46085;DHT22;31823;47.032;8.310;2024-02-21T01:21:36;2.10;99.90
46085;DHT22;31823;47.032;8.310;2024-02-21T01:24:01;2.10;99.90
46085;DHT22;31823;47.032;8.310;2024-02-21T01:26:27;2.20;99.90
46085;DHT22;31823;47.032;8.310;2024-02-21T01:28:52;2.20;99.90
46085;DHT22;31823;47.032;8.310;2024-02-21T01:31:18;2.20;99.90
46085;DHT22;31823;47.032;8.310;2024-02-21T01:33:43;2.30;99.90
46085;DHT22;31823;47.032;8.310;2024-02-21T01:36:09;2.30;99.90
46085;DHT22;31823;47.032;8.310;2024-02-21T01:38:35;2.30;99.90
46085;DHT22;31823;47.032;8.310;2024-02-21T01:41:01;2.30;99.90
46085;DHT22;31823;47.032;8.310;2024-02-21T01:43:26;2.30;99.90
46085;DHT22;31823;47.032;8.310;2024-02-21T01:45:55;2.40;99.90
46085;DHT22;31823;47.032;8.310;2024-02-21T01:48:22;2.40;99.90
46085;DHT22;31823;47.032;8.310;2024-02-21T01:50:49;2.40;99.90
46085;DHT22;31823;47.032;8.310;2024-02-21T01:53:18;2.40;99.90
46085;DHT22;31823;47.032;8.310;2024-02-21T01:55:45;2.50;99.90
46085;DHT22;31823;47.032;8.310;2024-02-21T01:58:13;2.50;99.90
46085;DHT22;31823;47.032;8.310;2024-02-21T02:00:42;2.50;99.90
46085;DHT22;31823;47.032;8.310;2024-02-21T02:03:12;2.50;99.90
46085;DHT22;31823;47.032;8.310;2024-02-21T02:05:48;2.70;99.90
46085;DHT22;31823;47.032;8.310;2024-02-21T02:08:15;2.70;99.90
46085;DHT22;31823;47.032;8.310;2024-02-21T02:10:42;2.70;99.90
46085;DHT22;31823;47.032;8.310;2024-02-21T02:13:08;2.80;99.90
46085;DHT22;31823;47.032;8.310;2024-02-21T02:15:44;2.70;99.90
46085;DHT22;31823;47.032;8.310;2024-02-21T02:18:11;2.80;99.90
46085;DHT22;31823;47.032;8.310;2024-02-21T02:20:40;2.80;99.90
46085;DHT22;31823;47.032;8.310;2024-02-21T02:25:40;2.80;99.90
46085;DHT22;31823;47.032;8.310;2024-02-21T02:28:08;2.80;99.90
46085;DHT22;31823;47.032;8.310;2024-02-21T02:30:35;2.90;99.90
46085;DHT22;31823;47.032;8.310;2024-02-21T02:33:04;2.80;99.90
46085;DHT22;31823;47.032;8.310;2024-02-21T02:35:30;2.80;99.90
46085;DHT22;31823;47.032;8.310;2024-02-21T02:37:56;2.90;99.90
46085;DHT22;31823;47.032;8.310;2024-02-21T02:40:22;2.90;99.90
46085;DHT22;31823;47.032;8.310;2024-02-21T02:42:47;2.90;99.90
46085;DHT22;31823;47.032;8.310;2024-02-21T02:45:15;2.90;99.90
46085;DHT22;31823;47.032;8.310;2024-02-21T02:47:40;2.90;99.90
46085;DHT22;31823;47.032;8.310;2024-02-21T02:50:07;2.90;99.90
46085;DHT22;31823;47.032;8.310;2024-02-21T02:52:33;2.80;99.90
46085;DHT22;31823;47.032;8.310;2024-02-21T02:54:59;2.80;99.90
46085;DHT22;31823;47.032;8.310;2024-02-21T02:57:24;2.80;99.90
46085;DHT22;31823;47.032;8.310;2024-02-21T02:59:51;2.80;99.90
46085;DHT22;31823;47.032;8.310;2024-02-21T03:02:17;2.70;99.90
46085;DHT22;31823;47.032;8.310;2024-02-21T03:04:43;2.70;99.90
46085;DHT22;31823;47.032;8.310;2024-02-21T03:07:09;2.70;99.90
46085;DHT22;31823;47.032;8.310;2024-02-21T03:09:37;2.70;99.90
46085;DHT22;31823;47.032;8.310;2024-02-21T03:12:03;2.70;99.90
46085;DHT22;31823;47.032;8.310;2024-02-21T03:14:29;2.60;99.90
46085;DHT22;31823;47.032;8.310;2024-02-21T03:16:55;2.60;99.90
46085;DHT22;31823;47.032;8.310;2024-02-21T03:19:21;2.60;99.90
46085;DHT22;31823;47.032;8.310;2024-02-21T03:21:48;2.60;99.90
46085;DHT22;31823;47.032;8.310;2024-02-21T03:24:15;2.60;99.90
46085;DHT22;31823;47.032;8.310;2024-02-21T03:26:41;2.60;99.90
46085;DHT22;31823;47.032;8.310;2024-02-21T03:29:07;2.60;99.90
46085;DHT22;31823;47.032;8.310;2024-02-21T03:31:33;2.50;99.90
46085;DHT22;31823;47.032;8.310;2024-02-21T03:33:58;2.50;99.90
46085;DHT22;31823;47.032;8.310;2024-02-21T03:36:24;2.50;99.90
46085;DHT22;31823;47.032;8.310;2024-02-21T03:38:49;2.50;99.90
46085;DHT22;31823;47.032;8.310;2024-02-21T03:41:15;2.50;99.90
46085;DHT22;31823;47.032;8.310;2024-02-21T03:43:41;2.50;99.90
46085;DHT22;31823;47.032;8.310;2024-02-21T03:46:07;2.40;99.90
46085;DHT22;31823;47.032;8.310;2024-02-21T03:48:32;2.40;99.90
46085;DHT22;31823;47.032;8.310;2024-02-21T03:50:58;2.30;99.90
46085;DHT22;31823;47.032;8.310;2024-02-21T03:53:24;2.30;99.90
46085;DHT22;31823;47.032;8.310;2024-02-21T03:55:50;2.30;99.90
46085;DHT22;31823;47.032;8.310;2024-02-21T03:58:15;2.20;99.90
46085;DHT22;31823;47.032;8.310;2024-02-21T04:00:41;2.20;99.90
46085;DHT22;31823;47.032;8.310;2024-02-21T04:03:07;2.20;99.90
46085;DHT22;31823;47.032;8.310;2024-02-21T04:05:32;2.20;99.90
46085;DHT22;31823;47.032;8.310;2024-02-21T04:07:58;2.10;99.90
46085;DHT22;31823;47.032;8.310;2024-02-21T04:10:24;2.20;99.90
46085;DHT22;31823;47.032;8.310;2024-02-21T04:12:50;2.20;99.90
46085;DHT22;31823;47.032;8.310;2024-02-21T04:15:16;2.20;99.90
46085;DHT22;31823;47.032;8.310;2024-02-21T04:17:42;2.30;99.90
46085;DHT22;31823;47.032;8.310;2024-02-21T04:20:14;2.40;99.90
46085;DHT22;31823;47.032;8.310;2024-02-21T04:22:40;2.40;99.90
46085;DHT22;31823;47.032;8.310;2024-02-21T04:25:06;2.40;99.90
46085;DHT22;31823;47.032;8.310;2024-02-21T04:27:32;2.30;99.90
46085;DHT22;31823;47.032;8.310;2024-02-21T04:29:57;2.30;99.90
46085;DHT22;31823;47.032;8.310;2024-02-21T04:32:23;2.30;99.90
46085;DHT22;31823;47.032;8.310;2024-02-21T04:34:49;2.20;99.90
46085;DHT22;31823;47.032;8.310;2024-02-21T04:37:14;2.20;99.90
46085;DHT22;31823;47.032;8.310;2024-02-21T04:39:40;2.10;99.90
46085;DHT22;31823;47.032;8.310;2024-02-21T04:42:06;2.20;99.90
46085;DHT22;31823;47.032;8.310;2024-02-21T04:44:31;2.10;99.90
46085;DHT22;31823;47.032;8.310;2024-02-21T04:46:57;2.20;99.90
46085;DHT22;31823;47.032;8.310;2024-02-21T04:49:23;2.20;99.90
46085;DHT22;31823;47.032;8.310;2024-02-21T04:51:48;2.20;99.90
46085;DHT22;31823;47.032;8.310;2024-02-21T04:54:14;2.20;99.90
46085;DHT22;31823;47.032;8.310;2024-02-21T04:56:39;2.30;99.90
46085;DHT22;31823;47.032;8.310;2024-02-21T04:59:05;2.40;99.90
46085;DHT22;31823;47.032;8.310;2024-02-21T05:01:31;2.50;99.90
46085;DHT22;31823;47.032;8.310;2024-02-21T05:03:57;2.50;99.90
46085;DHT22;31823;47.032;8.310;2024-02-21T05:06:22;2.60;99.90
46085;DHT22;31823;47.032;8.310;2024-02-21T05:08:49;2.70;99.90
46085;DHT22;31823;47.032;8.310;2024-02-21T05:11:14;2.70;99.90
46085;DHT22;31823;47.032;8.310;2024-02-21T05:13:40;2.70;99.90
46085;DHT22;31823;47.032;8.310;2024-02-21T05:16:06;2.70;99.90
46085;DHT22;31823;47.032;8.310;2024-02-21T05:18:33;2.80;99.90
46085;DHT22;31823;47.032;8.310;2024-02-21T05:20:59;2.80;99.90
46085;DHT22;31823;47.032;8.310;2024-02-21T05:23:25;2.70;99.90
46085;DHT22;31823;47.032;8.310;2024-02-21T05:25:51;2.70;99.90
46085;DHT22;31823;47.032;8.310;2024-02-21T05:28:16;2.70;99.90
46085;DHT22;31823;47.032;8.310;2024-02-21T05:30:42;2.70;99.90
46085;DHT22;31823;47.032;8.310;2024-02-21T05:33:08;2.70;99.90
46085;DHT22;31823;47.032;8.310;2024-02-21T05:35:35;2.60;99.90
46085;DHT22;31823;47.032;8.310;2024-02-21T05:38:01;2.60;99.90
46085;DHT22;31823;47.032;8.310;2024-02-21T05:40:29;2.60;99.90
46085;DHT22;31823;47.032;8.310;2024-02-21T05:42:55;2.60;99.90
46085;DHT22;31823;47.032;8.310;2024-02-21T05:45:20;2.50;99.90
46085;DHT22;31823;47.032;8.310;2024-02-21T05:47:46;2.50;99.90
46085;DHT22;31823;47.032;8.310;2024-02-21T05:50:12;2.50;99.90
46085;DHT22;31823;47.032;8.310;2024-02-21T05:52:37;2.50;99.90
46085;DHT22;31823;47.032;8.310;2024-02-21T05:55:03;2.50;99.90
46085;DHT22;31823;47.032;8.310;2024-02-21T05:57:29;2.40;99.90
46085;DHT22;31823;47.032;8.310;2024-02-21T05:59:54;2.40;99.90
46085;DHT22;31823;47.032;8.310;2024-02-21T06:02:20;2.40;99.90
46085;DHT22;31823;47.032;8.310;2024-02-21T06:04:45;2.40;99.90
46085;DHT22;31823;47.032;8.310;2024-02-21T06:07:11;2.40;99.90
46085;DHT22;31823;47.032;8.310;2024-02-21T06:09:37;2.30;99.90
46085;DHT22;31823;47.032;8.310;2024-02-21T06:12:03;2.30;99.90
46085;DHT22;31823;47.032;8.310;2024-02-21T06:14:28;2.30;99.90
46085;DHT22;31823;47.032;8.310;2024-02-21T06:16:54;2.30;99.90
46085;DHT22;31823;47.032;8.310;2024-02-21T06:19:20;2.30;99.90
46085;DHT22;31823;47.032;8.310;2024-02-21T06:21:45;2.30;99.90
46085;DHT22;31823;47.032;8.310;2024-02-21T06:24:11;2.30;99.90
46085;DHT22;31823;47.032;8.310;2024-02-21T06:26:38;2.30;99.90
46085;DHT22;31823;47.032;8.310;2024-02-21T06:29:05;2.30;99.90
46085;DHT22;31823;47.032;8.310;2024-02-21T06:31:31;2.20;99.90
46085;DHT22;31823;47.032;8.310;2024-02-21T06:33:57;2.20;99.90
46085;DHT22;31823;47.032;8.310;2024-02-21T06:36:22;2.20;99.90
46085;DHT22;31823;47.032;8.310;2024-02-21T06:38:48;2.20;99.90
46085;DHT22;31823;47.032;8.310;2024-02-21T06:41:20;2.20;99.90
46085;DHT22;31823;47.032;8.310;2024-02-21T06:43:46;2.20;99.90
46085;DHT22;31823;47.032;8.310;2024-02-21T06:46:21;2.30;99.90
46085;DHT22;31823;47.032;8.310;2024-02-21T06:48:47;2.20;99.90
46085;DHT22;31823;47.032;8.310;2024-02-21T06:51:13;2.20;99.90
46085;DHT22;31823;47.032;8.310;2024-02-21T06:53:39;2.20;99.90
46085;DHT22;31823;47.032;8.310;2024-02-21T06:56:05;2.30;99.90
46085;DHT22;31823;47.032;8.310;2024-02-21T06:58:31;2.30;99.90
46085;DHT22;31823;47.032;8.310;2024-02-21T07:00:57;2.30;99.90
46085;DHT22;31823;47.032;8.310;2024-02-21T07:03:22;2.40;99.90
46085;DHT22;31823;47.032;8.310;2024-02-21T07:05:49;2.40;99.90
46085;DHT22;31823;47.032;8.310;2024-02-21T07:08:15;2.50;99.90
46085;DHT22;31823;47.032;8.310;2024-02-21T07:10:41;2.50;99.90
46085;DHT22;31823;47.032;8.310;2024-02-21T07:13:07;2.60;99.90
46085;DHT22;31823;47.032;8.310;2024-02-21T07:15:32;2.60;99.90
46085;DHT22;31823;47.032;8.310;2024-02-21T07:17:58;2.70;99.90
46085;DHT22;31823;47.032;8.310;2024-02-21T07:20:24;2.80;99.90
46085;DHT22;31823;47.032;8.310;2024-02-21T07:22:50;2.90;99.90
46085;DHT22;31823;47.032;8.310;2024-02-21T07:25:16;3.00;99.90
46085;DHT22;31823;47.032;8.310;2024-02-21T07:27:42;3.00;99.90
46085;DHT22;31823;47.032;8.310;2024-02-21T07:30:08;3.10;99.90
46085;DHT22;31823;47.032;8.310;2024-02-21T07:32:34;3.20;99.90
46085;DHT22;31823;47.032;8.310;2024-02-21T07:35:00;3.30;99.90
46085;DHT22;31823;47.032;8.310;2024-02-21T07:37:25;3.30;99.90
46085;DHT22;31823;47.032;8.310;2024-02-21T07:39:51;3.20;99.90
46085;DHT22;31823;47.032;8.310;2024-02-21T07:42:16;3.20;99.90
46085;DHT22;31823;47.032;8.310;2024-02-21T07:44:42;3.30;99.90
46085;DHT22;31823;47.032;8.310;2024-02-21T07:47:07;3.50;99.90
46085;DHT22;31823;47.032;8.310;2024-02-21T07:49:40;3.60;99.90
46085;DHT22;31823;47.032;8.310;2024-02-21T07:52:05;3.70;99.90
46085;DHT22;31823;47.032;8.310;2024-02-21T07:54:31;3.80;99.90
46085;DHT22;31823;47.032;8.310;2024-02-21T07:56:57;3.80;99.90
46085;DHT22;31823;47.032;8.310;2024-02-21T07:59:22;4.00;99.90
46085;DHT22;31823;47.032;8.310;2024-02-21T08:01:48;4.20;99.90
46085;DHT22;31823;47.032;8.310;2024-02-21T08:04:14;4.30;99.90
46085;DHT22;31823;47.032;8.310;2024-02-21T08:06:39;4.40;99.90
46085;DHT22;31823;47.032;8.310;2024-02-21T08:09:05;4.40;99.90
46085;DHT22;31823;47.032;8.310;2024-02-21T08:11:31;4.60;99.90
46085;DHT22;31823;47.032;8.310;2024-02-21T08:13:56;4.70;99.90
46085;DHT22;31823;47.032;8.310;2024-02-21T08:16:23;5.00;99.90
46085;DHT22;31823;47.032;8.310;2024-02-21T08:18:49;5.00;99.90
46085;DHT22;31823;47.032;8.310;2024-02-21T08:21:14;5.20;99.90
46085;DHT22;31823;47.032;8.310;2024-02-21T08:23:40;5.40;99.90
46085;DHT22;31823;47.032;8.310;2024-02-21T08:26:05;5.60;99.90
46085;DHT22;31823;47.032;8.310;2024-02-21T08:28:31;5.90;99.90
46085;DHT22;31823;47.032;8.310;2024-02-21T08:30:56;6.30;99.90
46085;DHT22;31823;47.032;8.310;2024-02-21T08:33:22;6.50;99.90
46085;DHT22;31823;47.032;8.310;2024-02-21T08:35:51;6.60;99.90
46085;DHT22;31823;47.032;8.310;2024-02-21T08:38:17;6.90;99.90
46085;DHT22;31823;47.032;8.310;2024-02-21T08:40:44;7.00;99.90
46085;DHT22;31823;47.032;8.310;2024-02-21T08:43:09;6.90;99.90
46085;DHT22;31823;47.032;8.310;2024-02-21T08:45:35;7.30;99.90
46085;DHT22;31823;47.032;8.310;2024-02-21T08:48:00;7.40;99.90
46085;DHT22;31823;47.032;8.310;2024-02-21T08:50:26;7.20;99.90
46085;DHT22;31823;47.032;8.310;2024-02-21T08:52:51;7.30;99.90
46085;DHT22;31823;47.032;8.310;2024-02-21T08:55:17;8.00;99.90
46085;DHT22;31823;47.032;8.310;2024-02-21T08:57:43;8.40;99.90
46085;DHT22;31823;47.032;8.310;2024-02-21T09:00:09;9.20;99.90
46085;DHT22;31823;47.032;8.310;2024-02-21T09:02:42;8.80;99.90
46085;DHT22;31823;47.032;8.310;2024-02-21T09:05:14;8.90;99.90
46085;DHT22;31823;47.032;8.310;2024-02-21T09:07:39;10.00;99.90
46085;DHT22;31823;47.032;8.310;2024-02-21T09:10:05;10.70;99.50
46085;DHT22;31823;47.032;8.310;2024-02-21T09:12:31;11.10;98.20
46085;DHT22;31823;47.032;8.310;2024-02-21T09:14:57;9.80;99.90
46085;DHT22;31823;47.032;8.310;2024-02-21T09:17:23;9.30;99.90
46085;DHT22;31823;47.032;8.310;2024-02-21T09:19:50;8.90;99.90
46085;DHT22;31823;47.032;8.310;2024-02-21T09:22:16;9.20;99.90
46085;DHT22;31823;47.032;8.310;2024-02-21T09:24:41;9.20;99.90
46085;DHT22;31823;47.032;8.310;2024-02-21T09:27:07;9.10;99.90
46085;DHT22;31823;47.032;8.310;2024-02-21T09:29:32;9.50;99.90
46085;DHT22;31823;47.032;8.310;2024-02-21T09:32:01;9.20;99.90
46085;DHT22;31823;47.032;8.310;2024-02-21T09:34:28;10.20;99.90
46085;DHT22;31823;47.032;8.310;2024-02-21T09:36:54;10.50;98.70
46085;DHT22;31823;47.032;8.310;2024-02-21T09:39:19;10.70;99.60
46085;DHT22;31823;47.032;8.310;2024-02-21T09:41:50;10.50;99.90
46085;DHT22;31823;47.032;8.310;2024-02-21T09:44:21;10.80;98.20
46085;DHT22;31823;47.032;8.310;2024-02-21T09:47:03;11.60;97.40
46085;DHT22;31823;47.032;8.310;2024-02-21T09:49:34;11.00;98.20
46085;DHT22;31823;47.032;8.310;2024-02-21T09:52:04;11.30;99.60
46085;DHT22;31823;47.032;8.310;2024-02-21T09:54:33;11.60;99.80
46085;DHT22;31823;47.032;8.310;2024-02-21T09:57:03;11.80;97.30
46085;DHT22;31823;47.032;8.310;2024-02-21T09:59:32;12.40;97.00
46085;DHT22;31823;47.032;8.310;2024-02-21T10:01:59;12.40;96.00
46085;DHT22;31823;47.032;8.310;2024-02-21T10:04:28;12.30;95.80
46085;DHT22;31823;47.032;8.310;2024-02-21T10:06:54;13.40;94.00
46085;DHT22;31823;47.032;8.310;2024-02-21T10:09:27;14.00;94.10
46085;DHT22;31823;47.032;8.310;2024-02-21T10:11:55;14.50;93.10
46085;DHT22;31823;47.032;8.310;2024-02-21T10:14:20;14.00;93.40
46085;DHT22;31823;47.032;8.310;2024-02-21T10:16:48;14.80;93.40
46085;DHT22;31823;47.032;8.310;2024-02-21T10:19:20;14.60;93.70
46085;DHT22;31823;47.032;8.310;2024-02-21T10:22:12;14.70;92.10
46085;DHT22;31823;47.032;8.310;2024-02-21T10:24:38;16.70;91.30
46085;DHT22;31823;47.032;8.310;2024-02-21T10:27:07;17.20;90.90
46085;DHT22;31823;47.032;8.310;2024-02-21T10:29:37;16.30;90.30
46085;DHT22;31823;47.032;8.310;2024-02-21T10:32:14;15.50;91.20
46085;DHT22;31823;47.032;8.310;2024-02-21T10:34:42;14.50;92.10
46085;DHT22;31823;47.032;8.310;2024-02-21T10:37:11;12.70;94.70
46085;DHT22;31823;47.032;8.310;2024-02-21T10:39:41;13.60;94.10
46085;DHT22;31823;47.032;8.310;2024-02-21T10:42:06;13.60;94.70
46085;DHT22;31823;47.032;8.310;2024-02-21T10:44:38;14.90;95.20
46085;DHT22;31823;47.032;8.310;2024-02-21T10:47:11;14.80;93.40
46085;DHT22;31823;47.032;8.310;2024-02-21T10:49:41;14.40;95.10
46085;DHT22;31823;47.032;8.310;2024-02-21T10:55:19;13.50;96.30
46085;DHT22;31823;47.032;8.310;2024-02-21T10:57:46;13.10;96.50
46085;DHT22;31823;47.032;8.310;2024-02-21T11:00:15;13.10;95.80
46085;DHT22;31823;47.032;8.310;2024-02-21T11:02:43;13.00;96.10
46085;DHT22;31823;47.032;8.310;2024-02-21T11:05:09;12.70;95.70
46085;DHT22;31823;47.032;8.310;2024-02-21T11:07:38;13.00;95.70
46085;DHT22;31823;47.032;8.310;2024-02-21T11:10:05;13.30;94.10
46085;DHT22;31823;47.032;8.310;2024-02-21T11:12:33;14.40;93.20
46085;DHT22;31823;47.032;8.310;2024-02-21T11:15:08;15.80;90.90
46085;DHT22;31823;47.032;8.310;2024-02-21T11:17:34;16.40;90.30
46085;DHT22;31823;47.032;8.310;2024-02-21T11:20:11;16.60;89.30
46085;DHT22;31823;47.032;8.310;2024-02-21T11:22:41;16.00;90.70
46085;DHT22;31823;47.032;8.310;2024-02-21T11:25:08;16.10;90.40
46085;DHT22;31823;47.032;8.310;2024-02-21T11:27:48;15.80;90.50
46085;DHT22;31823;47.032;8.310;2024-02-21T11:30:13;15.90;90.20
46085;DHT22;31823;47.032;8.310;2024-02-21T11:32:43;15.50;90.90
46085;DHT22;31823;47.032;8.310;2024-02-21T11:35:08;15.50;90.80
46085;DHT22;31823;47.032;8.310;2024-02-21T11:37:44;15.50;88.60
46085;DHT22;31823;47.032;8.310;2024-02-21T11:40:12;15.30;91.00
46085;DHT22;31823;47.032;8.310;2024-02-21T11:42:38;14.40;92.10
46085;DHT22;31823;47.032;8.310;2024-02-21T11:45:04;14.40;93.40
46085;DHT22;31823;47.032;8.310;2024-02-21T11:47:30;14.50;92.20
46085;DHT22;31823;47.032;8.310;2024-02-21T11:49:56;14.70;92.50
46085;DHT22;31823;47.032;8.310;2024-02-21T11:52:22;15.30;92.10
46085;DHT22;31823;47.032;8.310;2024-02-21T11:54:51;14.80;92.30
46085;DHT22;31823;47.032;8.310;2024-02-21T11:57:18;13.60;93.40
46085;DHT22;31823;47.032;8.310;2024-02-21T11:59:45;13.40;93.40
46085;DHT22;31823;47.032;8.310;2024-02-21T12:02:11;13.30;93.80
46085;DHT22;31823;47.032;8.310;2024-02-21T12:04:37;13.20;93.10
46085;DHT22;31823;47.032;8.310;2024-02-21T12:07:02;12.80;94.50
46085;DHT22;31823;47.032;8.310;2024-02-21T12:09:31;12.60;94.80
46085;DHT22;31823;47.032;8.310;2024-02-21T12:12:01;13.10;94.30
46085;DHT22;31823;47.032;8.310;2024-02-21T12:14:30;13.20;94.30
46085;DHT22;31823;47.032;8.310;2024-02-21T12:16:56;12.80;94.60
46085;DHT22;31823;47.032;8.310;2024-02-21T12:19:25;12.80;94.70
46085;DHT22;31823;47.032;8.310;2024-02-21T12:21:51;13.10;95.30
46085;DHT22;31823;47.032;8.310;2024-02-21T12:24:22;13.30;93.80
46085;DHT22;31823;47.032;8.310;2024-02-21T12:26:48;13.90;92.90
46085;DHT22;31823;47.032;8.310;2024-02-21T12:29:14;13.70;93.30
46085;DHT22;31823;47.032;8.310;2024-02-21T12:31:40;13.30;94.50
46085;DHT22;31823;47.032;8.310;2024-02-21T12:34:06;13.40;94.80
46085;DHT22;31823;47.032;8.310;2024-02-21T12:36:32;13.30;95.60
46085;DHT22;31823;47.032;8.310;2024-02-21T12:38:58;13.50;94.80
46085;DHT22;31823;47.032;8.310;2024-02-21T12:41:24;13.40;94.50
46085;DHT22;31823;47.032;8.310;2024-02-21T12:43:52;13.00;94.20
46085;DHT22;31823;47.032;8.310;2024-02-21T12:46:18;13.40;95.50
46085;DHT22;31823;47.032;8.310;2024-02-21T12:48:43;13.40;95.40
46085;DHT22;31823;47.032;8.310;2024-02-21T12:51:09;13.20;93.80
46085;DHT22;31823;47.032;8.310;2024-02-21T12:53:34;13.40;94.80
46085;DHT22;31823;47.032;8.310;2024-02-21T12:56:00;13.70;94.60
46085;DHT22;31823;47.032;8.310;2024-02-21T12:58:26;13.70;92.70
46085;DHT22;31823;47.032;8.310;2024-02-21T13:00:52;13.60;94.50
46085;DHT22;31823;47.032;8.310;2024-02-21T13:03:18;13.70;94.00
46085;DHT22;31823;47.032;8.310;2024-02-21T13:05:44;14.20;92.80
46085;DHT22;31823;47.032;8.310;2024-02-21T13:08:10;13.90;93.80
46085;DHT22;31823;47.032;8.310;2024-02-21T13:10:37;14.20;92.90
46085;DHT22;31823;47.032;8.310;2024-02-21T13:13:03;14.90;92.20
46085;DHT22;31823;47.032;8.310;2024-02-21T13:15:29;14.70;93.50
46085;DHT22;31823;47.032;8.310;2024-02-21T13:17:56;14.40;93.40
46085;DHT22;31823;47.032;8.310;2024-02-21T13:20:23;14.90;92.80
46085;DHT22;31823;47.032;8.310;2024-02-21T13:22:48;15.10;91.50
46085;DHT22;31823;47.032;8.310;2024-02-21T13:25:14;14.60;92.00
46085;DHT22;31823;47.032;8.310;2024-02-21T13:27:45;14.40;93.20
46085;DHT22;31823;47.032;8.310;2024-02-21T13:30:11;14.80;93.90
46085;DHT22;31823;47.032;8.310;2024-02-21T13:32:38;14.50;95.20
46085;DHT22;31823;47.032;8.310;2024-02-21T13:35:04;14.20;95.40
46085;DHT22;31823;47.032;8.310;2024-02-21T13:37:29;13.90;95.50
46085;DHT22;31823;47.032;8.310;2024-02-21T13:39:55;13.60;95.00
46085;DHT22;31823;47.032;8.310;2024-02-21T13:42:21;13.70;95.80
46085;DHT22;31823;47.032;8.310;2024-02-21T13:44:47;13.60;96.20
46085;DHT22;31823;47.032;8.310;2024-02-21T13:47:15;13.70;94.90
46085;DHT22;31823;47.032;8.310;2024-02-21T13:49:41;13.80;94.60
46085;DHT22;31823;47.032;8.310;2024-02-21T13:52:07;13.60;94.20
46085;DHT22;31823;47.032;8.310;2024-02-21T13:54:34;13.00;96.40
46085;DHT22;31823;47.032;8.310;2024-02-21T13:57:00;13.30;96.40
46085;DHT22;31823;47.032;8.310;2024-02-21T13:59:27;13.50;97.10
46085;DHT22;31823;47.032;8.310;2024-02-21T14:01:53;13.60;96.00
46085;DHT22;31823;47.032;8.310;2024-02-21T14:04:19;13.30;96.10
46085;DHT22;31823;47.032;8.310;2024-02-21T14:06:45;13.30;96.90
46085;DHT22;31823;47.032;8.310;2024-02-21T14:09:11;13.50;95.60
46085;DHT22;31823;47.032;8.310;2024-02-21T14:11:37;13.40;95.80
46085;DHT22;31823;47.032;8.310;2024-02-21T14:14:04;13.20;97.10
46085;DHT22;31823;47.032;8.310;2024-02-21T14:16:30;13.30;96.90
46085;DHT22;31823;47.032;8.310;2024-02-21T14:18:58;13.70;96.50
46085;DHT22;31823;47.032;8.310;2024-02-21T14:21:24;13.40;97.30
46085;DHT22;31823;47.032;8.310;2024-02-21T14:23:53;13.50;97.10
46085;DHT22;31823;47.032;8.310;2024-02-21T14:26:18;13.30;97.50
46085;DHT22;31823;47.032;8.310;2024-02-21T14:28:44;13.20;97.50
46085;DHT22;31823;47.032;8.310;2024-02-21T14:31:11;13.20;97.20
46085;DHT22;31823;47.032;8.310;2024-02-21T14:33:37;13.20;98.30
46085;DHT22;31823;47.032;8.310;2024-02-21T14:36:03;13.00;98.50
46085;DHT22;31823;47.032;8.310;2024-02-21T14:38:29;12.90;98.40
46085;DHT22;31823;47.032;8.310;2024-02-21T14:40:55;12.80;98.50
46085;DHT22;31823;47.032;8.310;2024-02-21T14:43:21;12.70;98.60
46085;DHT22;31823;47.032;8.310;2024-02-21T14:45:47;12.60;98.10
46085;DHT22;31823;47.032;8.310;2024-02-21T14:48:14;12.70;98.20
46085;DHT22;31823;47.032;8.310;2024-02-21T14:50:39;12.80;97.40
46085;DHT22;31823;47.032;8.310;2024-02-21T14:53:06;12.20;96.80
46085;DHT22;31823;47.032;8.310;2024-02-21T14:55:33;12.30;97.70
46085;DHT22;31823;47.032;8.310;2024-02-21T14:57:59;12.50;96.70
46085;DHT22;31823;47.032;8.310;2024-02-21T15:00:24;12.50;97.20
46085;DHT22;31823;47.032;8.310;2024-02-21T15:02:56;12.50;97.80
46085;DHT22;31823;47.032;8.310;2024-02-21T15:05:22;12.20;98.50
46085;DHT22;31823;47.032;8.310;2024-02-21T15:07:48;12.20;97.50
46085;DHT22;31823;47.032;8.310;2024-02-21T15:10:14;12.30;97.90
46085;DHT22;31823;47.032;8.310;2024-02-21T15:12:39;12.10;97.50
46085;DHT22;31823;47.032;8.310;2024-02-21T15:15:06;12.00;97.70
46085;DHT22;31823;47.032;8.310;2024-02-21T15:17:34;11.90;97.60
46085;DHT22;31823;47.032;8.310;2024-02-21T15:20:01;11.90;98.20
46085;DHT22;31823;47.032;8.310;2024-02-21T15:22:26;12.10;97.70
46085;DHT22;31823;47.032;8.310;2024-02-21T15:24:53;12.10;97.60
46085;DHT22;31823;47.032;8.310;2024-02-21T15:27:18;12.20;97.90
46085;DHT22;31823;47.032;8.310;2024-02-21T15:29:44;12.10;98.30
46085;DHT22;31823;47.032;8.310;2024-02-21T15:32:10;11.90;99.30
46085;DHT22;31823;47.032;8.310;2024-02-21T15:34:36;11.70;99.50
46085;DHT22;31823;47.032;8.310;2024-02-21T15:37:02;11.70;99.20
46085;DHT22;31823;47.032;8.310;2024-02-21T15:39:29;11.70;99.50
46085;DHT22;31823;47.032;8.310;2024-02-21T15:41:55;11.50;99.90